createdAt,value
2022-10-02T00:00:16.914Z,11.89
2022-10-02T00:03:23.904Z,11.96
2022-10-02T00:06:11.800Z,11.98
2022-10-02T00:08:43.706Z,12.04
2022-10-02T00:11:27.510Z,12.05
2022-10-02T00:14:02.305Z,12.01
2022-10-02T00:16:40.339Z,12.07
2022-10-02T00:19:12.319Z,12.02
2022-10-02T00:22:13.968Z,12.05
2022-10-02T00:25:12.449Z,12.02
2022-10-02T00:28:28.529Z,11.93
2022-10-02T00:31:44.922Z,11.92
2022-10-02T00:35:03.233Z,11.94
2022-10-02T00:37:50.892Z,11.92
2022-10-02T00:41:22.220Z,11.90
2022-10-02T00:44:22.769Z,11.96
2022-10-02T00:47:43.663Z,11.92
2022-10-02T00:50:22.248Z,11.92
2022-10-02T00:53:19.623Z,11.92
2022-10-02T00:55:57.505Z,11.94
2022-10-02T00:59:13.605Z,11.98
2022-10-02T01:02:07.279Z,11.96
2022-10-02T01:04:38.946Z,12.04
2022-10-02T01:07:11.291Z,12.00
2022-10-02T01:09:40.334Z,11.97
2022-10-02T01:12:08.429Z,12.01
2022-10-02T01:14:39.220Z,12.03
2022-10-02T01:17:33.250Z,11.99
2022-10-02T01:20:07.805Z,12.03
2022-10-02T01:22:49.207Z,12.04
2022-10-02T01:25:16.724Z,12.08
2022-10-02T01:27:44.315Z,11.95
2022-10-02T01:30:17.461Z,12.04
2022-10-02T01:32:58.082Z,12.01
2022-10-02T01:35:35.800Z,12.08
2022-10-02T01:38:13.572Z,12.12
2022-10-02T01:40:42.183Z,12.14
2022-10-02T01:43:19.711Z,12.13
2022-10-02T01:46:21.706Z,12.11
2022-10-02T01:49:34.877Z,12.09
2022-10-02T01:52:26.254Z,12.15
2022-10-02T01:56:01.270Z,12.13
2022-10-02T01:58:55.921Z,12.13
2022-10-02T02:01:25.923Z,12.15
2022-10-02T02:04:27.073Z,12.11
2022-10-02T02:07:26.318Z,12.15
2022-10-02T02:10:06.788Z,12.22
2022-10-02T02:12:47.657Z,12.20
2022-10-02T02:15:33.572Z,12.17
2022-10-02T02:18:24.465Z,12.09
2022-10-02T02:20:56.191Z,12.10
2022-10-02T02:23:31.552Z,12.09
2022-10-02T02:26:08.555Z,12.11
2022-10-02T02:28:38.278Z,12.11
2022-10-02T02:31:10.101Z,12.11
2022-10-02T02:33:50.603Z,12.08
2022-10-02T02:36:24.295Z,12.11
2022-10-02T02:39:00.747Z,12.09
2022-10-02T02:41:37.425Z,12.11
2022-10-02T02:44:30.172Z,12.13
2022-10-02T02:47:22.599Z,12.13
2022-10-02T02:50:12.337Z,12.16
2022-10-02T02:52:53.465Z,12.12
2022-10-02T02:55:29.160Z,12.18
2022-10-02T02:58:03.671Z,12.24
2022-10-02T03:00:32.333Z,12.21
2022-10-02T03:02:59.584Z,12.21
2022-10-02T03:05:29.654Z,12.26
2022-10-02T03:08:07.865Z,12.25
2022-10-02T03:11:25.211Z,12.26
2022-10-02T03:14:21.371Z,12.25
2022-10-02T03:17:16.109Z,12.24
2022-10-02T03:20:17.653Z,12.26
2022-10-02T03:23:12.423Z,12.26
2022-10-02T03:26:04.169Z,12.28
2022-10-02T03:28:55.615Z,12.30
2022-10-02T03:31:29.789Z,12.32
2022-10-02T03:34:00.576Z,12.35
2022-10-02T03:36:28.732Z,12.35
2022-10-02T03:39:23.687Z,12.38
2022-10-02T03:41:48.808Z,12.36
2022-10-02T03:44:16.020Z,12.42
2022-10-02T03:46:43.358Z,12.35
2022-10-02T03:49:10.959Z,12.41
2022-10-02T03:51:38.123Z,12.44
2022-10-02T03:54:18.135Z,12.45
2022-10-02T03:56:55.304Z,12.48
2022-10-02T03:59:43.199Z,12.48
2022-10-02T04:02:43.261Z,12.47
2022-10-02T04:05:13.951Z,12.48
2022-10-02T04:07:51.733Z,12.55
2022-10-02T04:10:52.984Z,12.51
2022-10-02T04:13:56.027Z,12.53
2022-10-02T04:16:41.258Z,12.53
2022-10-02T04:19:40.416Z,12.54
2022-10-02T04:22:35.132Z,12.54
2022-10-02T04:25:22.193Z,12.50
2022-10-02T04:28:05.752Z,12.49
2022-10-02T04:30:33.334Z,12.51
2022-10-02T04:33:17.809Z,12.47
2022-10-02T04:36:30.015Z,12.47
2022-10-02T04:39:10.506Z,12.50
2022-10-02T04:41:49.565Z,12.49
2022-10-02T04:44:46.985Z,12.47
2022-10-02T04:47:43.306Z,12.52
2022-10-02T04:50:44.352Z,12.54
2022-10-02T04:54:04.419Z,12.57
2022-10-02T04:56:54.335Z,12.54
2022-10-02T04:59:50.137Z,12.55
2022-10-02T05:02:44.151Z,12.55
2022-10-02T05:05:33.047Z,12.54
2022-10-02T05:08:34.470Z,12.57
2022-10-02T05:11:32.522Z,12.57
2022-10-02T05:14:30.182Z,12.56
2022-10-02T05:17:35.836Z,12.57
2022-10-02T05:20:20.786Z,12.58
2022-10-02T05:23:02.885Z,12.60
2022-10-02T05:25:57.476Z,12.64
2022-10-02T05:28:45.999Z,12.66
2022-10-02T05:31:34.542Z,12.66
2022-10-02T05:34:29.326Z,12.65
2022-10-02T05:37:41.953Z,12.71
2022-10-02T05:40:34.037Z,12.79
2022-10-02T05:43:24.368Z,12.85
2022-10-02T05:46:22.800Z,12.96
2022-10-02T05:48:57.808Z,12.95
2022-10-02T05:51:59.358Z,13.01
2022-10-02T05:54:54.150Z,13.02
2022-10-02T05:57:27.110Z,13.16
2022-10-02T06:00:41.032Z,13.28
2022-10-02T06:03:36.137Z,13.32
2022-10-02T06:06:26.753Z,13.53
2022-10-02T06:09:02.840Z,13.57
2022-10-02T06:11:40.562Z,13.48
2022-10-02T06:14:47.321Z,13.55
2022-10-02T06:18:02.943Z,13.67
2022-10-02T06:20:46.615Z,13.75
2022-10-02T06:23:17.194Z,13.80
2022-10-02T06:26:40.161Z,13.86
2022-10-02T06:29:26.901Z,14.04
2022-10-02T06:32:25.068Z,14.01
2022-10-02T06:34:52.554Z,14.10
2022-10-02T06:37:40.304Z,14.15
2022-10-02T06:41:16.732Z,14.20
2022-10-02T06:44:23.251Z,14.32
2022-10-02T06:47:05.073Z,14.55
2022-10-02T06:49:57.971Z,14.64
2022-10-02T06:52:53.480Z,14.69
2022-10-02T06:56:19.237Z,14.80
2022-10-02T06:58:57.226Z,14.73
2022-10-02T07:01:56.422Z,14.65
2022-10-02T07:05:06.087Z,14.70
2022-10-02T07:07:52.474Z,14.82
2022-10-02T07:10:55.407Z,14.83
2022-10-02T07:13:44.551Z,14.95
2022-10-02T07:16:18.183Z,15.09
2022-10-02T07:19:02.332Z,15.07
2022-10-02T07:21:47.278Z,15.27
2022-10-02T07:24:35.886Z,15.43
2022-10-02T07:27:21.062Z,15.36
2022-10-02T07:30:10.836Z,15.43
2022-10-02T07:33:03.722Z,15.50
2022-10-02T07:35:43.886Z,15.46
2022-10-02T07:38:22.953Z,15.53
2022-10-02T07:41:07.052Z,15.65
2022-10-02T07:43:58.677Z,15.88
2022-10-02T07:47:00.388Z,15.88
2022-10-02T07:49:56.125Z,15.93
2022-10-02T07:52:36.641Z,16.09
2022-10-02T07:55:16.376Z,16.05
2022-10-02T07:58:10.114Z,16.04
2022-10-02T08:00:47.712Z,16.22
2022-10-02T08:03:24.404Z,16.30
2022-10-02T08:05:55.706Z,16.67
2022-10-02T08:08:32.172Z,17.66
2022-10-02T08:11:37.261Z,18.48
2022-10-02T08:14:32.161Z,19.51
2022-10-02T08:17:19.686Z,19.68
2022-10-02T08:19:52.432Z,21.70
2022-10-02T08:22:39.381Z,20.36
2022-10-02T08:25:36.871Z,19.61
2022-10-02T08:29:01.348Z,19.01
2022-10-02T08:31:29.796Z,19.07
2022-10-02T08:33:57.715Z,19.28
2022-10-02T08:36:46.031Z,19.42
2022-10-02T08:39:31.053Z,20.76
2022-10-02T08:42:17.198Z,19.85
2022-10-02T08:45:15.453Z,23.68
2022-10-02T08:47:48.627Z,24.62
2022-10-02T08:51:06.219Z,27.35
2022-10-02T08:54:19.309Z,29.33
2022-10-02T08:57:46.099Z,25.10
2022-10-02T09:00:40.108Z,22.11
2022-10-02T09:03:45.893Z,20.66
2022-10-02T09:06:52.189Z,20.71
2022-10-02T09:09:45.982Z,26.56
2022-10-02T09:12:25.175Z,29.24
2022-10-02T09:15:03.217Z,32.16
2022-10-02T09:17:47.646Z,32.56
2022-10-02T09:21:13.125Z,32.84
2022-10-02T09:24:01.005Z,32.96
2022-10-02T09:26:36.852Z,31.72
2022-10-02T09:29:52.104Z,28.70
2022-10-02T09:32:34.983Z,33.72
2022-10-02T09:35:46.743Z,38.83
2022-10-02T09:38:45.115Z,41.90
2022-10-02T09:41:49.667Z,44.55
2022-10-02T09:45:01.787Z,38.69
2022-10-02T09:48:19.727Z,34.00
2022-10-02T09:51:41.853Z,28.78
2022-10-02T09:54:57.174Z,30.75
2022-10-02T09:57:31.892Z,30.24
2022-10-02T10:00:49.633Z,29.56
2022-10-02T10:03:38.335Z,27.07
2022-10-02T10:06:17.677Z,25.03
2022-10-02T10:09:11.840Z,25.74
2022-10-02T10:12:02.001Z,24.90
2022-10-02T10:15:09.450Z,24.01
2022-10-02T10:18:10.520Z,23.87
2022-10-02T10:21:30.440Z,22.58
2022-10-02T10:24:26.784Z,22.43
2022-10-02T10:27:13.459Z,22.48
2022-10-02T10:30:17.639Z,24.45
2022-10-02T10:33:42.204Z,24.64
2022-10-02T10:36:59.363Z,25.85
2022-10-02T10:40:37.200Z,25.54
2022-10-02T10:43:29.121Z,28.79
2022-10-02T10:46:46.153Z,30.65
2022-10-02T10:49:47.717Z,32.50
2022-10-02T10:52:25.267Z,32.41
2022-10-02T10:55:07.996Z,32.73
2022-10-02T10:58:00.217Z,29.02
2022-10-02T11:00:53.619Z,26.82
2022-10-02T11:03:45.001Z,25.08
2022-10-02T11:07:08.084Z,29.43
2022-10-02T11:10:20.769Z,28.51
2022-10-02T11:13:21.552Z,26.74
2022-10-02T11:16:52.442Z,25.65
2022-10-02T11:19:29.961Z,24.56
2022-10-02T11:22:10.456Z,24.67
2022-10-02T11:25:21.654Z,23.40
2022-10-02T11:28:46.972Z,22.50
2022-10-02T11:31:47.865Z,25.27
2022-10-02T11:34:47.609Z,26.20
2022-10-02T11:37:59.602Z,26.01
2022-10-02T11:41:07.726Z,27.03
2022-10-02T11:44:05.637Z,24.89
2022-10-02T11:47:19.677Z,27.08
2022-10-02T11:50:23.526Z,27.68
2022-10-02T11:53:02.811Z,25.70
2022-10-02T11:55:52.971Z,23.90
2022-10-02T11:58:45.195Z,23.39
2022-10-02T12:01:42.231Z,22.99
2022-10-02T12:04:18.749Z,23.29
2022-10-02T12:07:10.745Z,25.47
2022-10-02T12:10:15.663Z,26.65
2022-10-02T12:13:16.070Z,26.64
2022-10-02T12:16:07.920Z,34.92
2022-10-02T12:18:41.096Z,35.81
2022-10-02T12:21:41.663Z,40.66
2022-10-02T12:24:46.026Z,40.85
2022-10-02T12:28:11.907Z,35.66
2022-10-02T12:31:30.063Z,40.90
2022-10-02T12:34:25.477Z,40.57
2022-10-02T12:37:06.241Z,41.79
2022-10-02T12:39:52.744Z,44.02
2022-10-02T12:43:10.488Z,42.69
2022-10-02T12:46:19.112Z,43.63
2022-10-02T12:49:34.283Z,43.67
2022-10-02T12:52:40.047Z,37.98
2022-10-02T12:55:27.435Z,37.35
2022-10-02T12:58:24.907Z,36.20
2022-10-02T13:01:32.042Z,33.98
2022-10-02T13:04:38.112Z,35.73
2022-10-02T13:07:41.920Z,38.91
2022-10-02T13:10:24.906Z,36.83
2022-10-02T13:13:25.111Z,33.00
2022-10-02T13:16:46.671Z,35.22
2022-10-02T13:20:10.787Z,38.82
2022-10-02T13:23:10.289Z,39.63
2022-10-02T13:26:00.325Z,39.19
2022-10-02T13:28:40.521Z,38.65
2022-10-02T13:31:29.143Z,35.86
2022-10-02T13:34:06.936Z,34.01
2022-10-02T13:37:10.876Z,32.17
2022-10-02T13:40:35.512Z,33.72
2022-10-02T13:43:21.444Z,35.78
2022-10-02T13:46:43.081Z,34.35
2022-10-02T13:49:38.491Z,33.57
2022-10-02T13:52:35.722Z,34.31
2022-10-02T13:55:17.608Z,31.65
2022-10-02T13:58:37.744Z,29.71
2022-10-02T14:01:26.848Z,28.24
2022-10-02T14:04:41.655Z,26.49
2022-10-02T14:07:27.251Z,25.31
2022-10-02T14:10:35.032Z,24.50
2022-10-02T14:13:31.655Z,23.82
2022-10-02T14:16:11.039Z,23.21
2022-10-02T14:19:23.691Z,22.78
2022-10-02T14:23:03.705Z,22.70
2022-10-02T14:25:46.579Z,22.97
2022-10-02T14:28:54.984Z,24.68
2022-10-02T14:32:00.117Z,24.75
2022-10-02T14:35:03.239Z,25.33
2022-10-02T14:37:57.548Z,25.96
2022-10-02T14:40:42.829Z,27.37
2022-10-02T14:43:37.279Z,29.24
2022-10-02T14:46:10.340Z,29.89
2022-10-02T14:49:02.081Z,29.20
2022-10-02T14:52:35.282Z,28.01
2022-10-02T14:55:44.274Z,26.24
2022-10-02T14:58:42.883Z,24.75
2022-10-02T15:01:23.933Z,23.51
2022-10-02T15:04:24.089Z,22.65
2022-10-02T15:07:26.125Z,22.01
2022-10-02T15:10:34.012Z,21.53
2022-10-02T15:13:19.201Z,21.16
2022-10-02T15:16:38.663Z,20.83
2022-10-02T15:19:20.704Z,20.46
2022-10-02T15:22:28.471Z,20.11
2022-10-02T15:25:18.076Z,19.70
2022-10-02T15:28:35.881Z,19.25
2022-10-02T15:31:31.341Z,18.98
2022-10-02T15:34:42.463Z,18.70
2022-10-02T15:37:32.868Z,18.54
2022-10-02T15:40:08.946Z,18.40
2022-10-02T15:42:52.451Z,18.33
2022-10-02T15:46:08.291Z,18.12
2022-10-02T15:49:06.609Z,17.90
2022-10-02T15:52:00.321Z,17.71
2022-10-02T15:54:51.943Z,17.52
2022-10-02T15:57:49.538Z,17.33
2022-10-02T16:00:22.092Z,17.35
2022-10-02T16:03:31.802Z,17.36
2022-10-02T16:06:36.440Z,17.39
2022-10-02T16:09:26.816Z,17.39
2022-10-02T16:11:58.455Z,17.39
2022-10-02T16:15:10.361Z,17.27
2022-10-02T16:18:01.661Z,17.29
2022-10-02T16:21:13.603Z,17.27
2022-10-02T16:24:08.272Z,17.21
2022-10-02T16:27:09.693Z,17.14
2022-10-02T16:30:15.326Z,17.07
2022-10-02T16:33:13.205Z,17.07
2022-10-02T16:35:58.623Z,16.97
2022-10-02T16:39:13.224Z,16.81
2022-10-02T16:42:02.232Z,16.73
2022-10-02T16:45:13.841Z,16.61
2022-10-02T16:48:09.784Z,16.55
2022-10-02T16:51:02.650Z,16.49
2022-10-02T16:53:40.170Z,16.43
2022-10-02T16:56:17.457Z,16.46
2022-10-02T16:59:22.230Z,16.38
2022-10-02T17:02:18.010Z,16.33
2022-10-02T17:05:06.847Z,16.34
2022-10-02T17:08:31.139Z,16.32
2022-10-02T17:11:57.608Z,16.25
2022-10-02T17:15:14.486Z,16.12
2022-10-02T17:18:11.524Z,16.01
2022-10-02T17:20:54.663Z,15.97
2022-10-02T17:23:39.969Z,15.92
2022-10-02T17:27:12.756Z,15.81
2022-10-02T17:30:04.215Z,15.85
2022-10-02T17:32:51.243Z,15.79
2022-10-02T17:35:57.381Z,15.74
2022-10-02T17:39:21.451Z,15.72
2022-10-02T17:42:11.723Z,15.68
2022-10-02T17:45:26.397Z,15.67
2022-10-02T17:48:08.230Z,15.62
2022-10-02T17:50:45.444Z,15.52
2022-10-02T17:53:37.053Z,15.50
2022-10-02T17:56:32.438Z,15.38
2022-10-02T17:59:25.803Z,15.31
2022-10-02T18:02:14.392Z,15.30
2022-10-02T18:05:34.331Z,15.16
2022-10-02T18:08:36.674Z,15.03
2022-10-02T18:11:49.929Z,15.01
2022-10-02T18:14:42.101Z,15.08
2022-10-02T18:17:41.468Z,14.90
2022-10-02T18:20:36.582Z,14.62
2022-10-02T18:23:37.879Z,14.38
2022-10-02T18:26:23.351Z,14.24
2022-10-02T18:29:21.237Z,14.17
2022-10-02T18:31:56.590Z,13.97
2022-10-02T18:34:54.635Z,13.90
2022-10-02T18:37:50.316Z,13.76
2022-10-02T18:40:34.168Z,13.61
2022-10-02T18:43:11.166Z,13.57
2022-10-02T18:46:27.496Z,13.47
2022-10-02T18:49:12.578Z,13.36
2022-10-02T18:51:45.813Z,13.29
2022-10-02T18:54:37.589Z,13.30
2022-10-02T18:57:07.821Z,13.24
2022-10-02T19:00:15.843Z,13.15
2022-10-02T19:03:51.571Z,13.14
2022-10-02T19:07:03.118Z,13.10
2022-10-02T19:09:31.490Z,13.03
2022-10-02T19:12:13.445Z,13.04
2022-10-02T19:14:46.401Z,12.99
2022-10-02T19:17:21.977Z,12.99
2022-10-02T19:19:49.153Z,12.96
2022-10-02T19:22:24.522Z,12.98
2022-10-02T19:25:05.638Z,12.94
2022-10-02T19:27:37.639Z,12.94
2022-10-02T19:30:22.070Z,12.83
2022-10-02T19:32:51.659Z,12.86
2022-10-02T19:35:32.417Z,12.82
2022-10-02T19:38:33.391Z,12.77
2022-10-02T19:41:09.867Z,12.78
2022-10-02T19:43:58.419Z,12.81
2022-10-02T19:46:48.503Z,12.78
2022-10-02T19:49:32.463Z,12.68
2022-10-02T19:51:59.821Z,12.73
2022-10-02T19:54:37.959Z,12.71
2022-10-02T19:57:16.497Z,12.56
2022-10-02T19:59:54.245Z,12.50
2022-10-02T20:02:36.532Z,12.45
2022-10-02T20:05:11.715Z,12.33
2022-10-02T20:07:40.329Z,12.31
2022-10-02T20:11:16.253Z,12.17
2022-10-02T20:14:03.714Z,12.12
2022-10-02T20:16:49.990Z,12.13
2022-10-02T20:19:23.890Z,12.07
2022-10-02T20:22:26.188Z,12.02
2022-10-02T20:25:18.351Z,11.92
2022-10-02T20:27:56.666Z,11.83
2022-10-02T20:30:35.866Z,11.83
2022-10-02T20:33:35.723Z,11.81
2022-10-02T20:36:17.176Z,11.81
2022-10-02T20:39:05.353Z,11.81
2022-10-02T20:41:57.667Z,11.78
2022-10-02T20:44:29.352Z,11.76
2022-10-02T20:48:06.184Z,11.73
2022-10-02T20:51:01.916Z,11.78
2022-10-02T20:54:25.434Z,11.71
2022-10-02T20:57:56.250Z,11.69
2022-10-02T21:00:28.987Z,11.63
2022-10-02T21:03:21.194Z,11.64
2022-10-02T21:06:11.334Z,11.65
2022-10-02T21:09:22.580Z,11.64
2022-10-02T21:12:37.130Z,11.63
2022-10-02T21:15:39.714Z,11.65
2022-10-02T21:18:15.869Z,11.66
2022-10-02T21:21:15.681Z,11.62
2022-10-02T21:24:06.939Z,11.60
2022-10-02T21:27:12.933Z,11.54
2022-10-02T21:30:18.862Z,11.53
2022-10-02T21:33:19.516Z,11.70
2022-10-02T21:36:06.858Z,11.72
2022-10-02T21:39:16.869Z,11.71
2022-10-02T21:42:31.959Z,11.73
2022-10-02T21:45:23.904Z,11.84
2022-10-02T21:48:04.787Z,11.88
2022-10-02T21:51:19.695Z,12.00
2022-10-02T21:54:27.750Z,12.02
2022-10-02T21:57:19.097Z,11.99
2022-10-02T22:00:14.077Z,11.95
2022-10-02T22:03:35.886Z,12.00
2022-10-02T22:06:21.603Z,12.02
2022-10-02T22:08:57.663Z,11.95
2022-10-02T22:11:50.888Z,11.92
2022-10-02T22:14:34.861Z,11.88
2022-10-02T22:17:25.288Z,11.84
2022-10-02T22:20:24.670Z,11.76
2022-10-02T22:23:33.010Z,11.77
2022-10-02T22:26:25.370Z,11.64
2022-10-02T22:29:25.695Z,11.59
2022-10-02T22:32:39.490Z,11.56
2022-10-02T22:35:49.242Z,11.61
2022-10-02T22:38:39.530Z,11.60
2022-10-02T22:41:29.318Z,11.60
2022-10-02T22:44:23.055Z,11.57
2022-10-02T22:47:09.075Z,11.52
2022-10-02T22:50:03.711Z,11.42
2022-10-02T22:52:42.912Z,11.42
2022-10-02T22:55:46.558Z,11.36
2022-10-02T22:58:30.454Z,11.32
2022-10-02T23:01:29.742Z,11.31
2022-10-02T23:04:09.001Z,11.23
2022-10-02T23:06:54.974Z,11.24
2022-10-02T23:09:38.365Z,11.21
2022-10-02T23:12:23.311Z,11.16
2022-10-02T23:15:44.827Z,11.20
2022-10-02T23:18:16.543Z,11.22
2022-10-02T23:20:53.316Z,11.21
2022-10-02T23:23:33.691Z,11.30
2022-10-02T23:26:33.586Z,11.29
2022-10-02T23:29:27.422Z,11.32
2022-10-02T23:32:35.683Z,11.20
2022-10-02T23:35:13.963Z,11.20
2022-10-02T23:38:05.032Z,11.14
2022-10-02T23:41:17.580Z,11.19
2022-10-02T23:44:10.528Z,11.21
2022-10-02T23:47:01.830Z,11.19
2022-10-02T23:50:24.336Z,11.19
2022-10-02T23:53:12.872Z,11.26
2022-10-02T23:56:17.278Z,11.20
2022-10-02T23:59:15.067Z,11.17
